עמוד ראשי
METAR-TAF:

METAR-TAF

שדות תעופה :

שטוטגרט, גרמניה

נמל התעופה שטוטגרט

קו רוחב: 48-41N, קו אורך: 009-13E, גובה: 396מטר

תצפית מזג אוויר נוכחית

הדו"ח נערך לפני 9דקות, בשעה 11:50 UTC
רוח 15קשר מכיוון מערב, משתנה בין דרום-מערב ו מערב/צפון-מערב
טמפרטורת 29 צלסיוס
לחות 43%
לחץ 1017 hPa
ראות 10 קילומטר או יותר
ללא עננים שבסיסם נמוך מ 5000 רגל או קומולונימבוס

METAR: EDDS 231150Z 27015KT 230V300 CAVOK 29/15 Q1017 TEMPO 30015G25KT

זמן: 13:59 (11:59 UTC)

תחזית

הדו"ח נערך לפני 59דקות, בשעה 11:00 UTC
תחזית בתוקף מ 23 ב 12 UTC עד 24 ב 12 UTC
רוח 12קשר מכיוון מערב
ראות 10 קילומטר או יותר
מעט עננים בגובה 4000רגל
זמנית מ -
23 ב 12 UTC עד 23 ב 18 UTC
רוח 15קשר מכיוון מערב/צפון-מערב עם משבים עד 25קשר
יעשה מ
23 ב 18 UTC עד 23 ב 21 UTC
רוח 7קשר מכיוון מערב/צפון-מערב
יעשה מ
24 ב 04 UTC עד 24 ב 07 UTC
רוח 5קשר מכיוון מערב/דרום-מערב

TAF: EDDS 231100Z 2312/2412 28012KT 9999 FEW040 TEMPO 2312/2318 30015G25KT BECMG 2318/2321 30007KT BECMG 2404/2407 24005KT

תצפיות ותחזיות מזג אוויר לגבי יותר מ- 4,000 שדות תעופה ברחבי העולם. דוחות METAR ו- TAF.

התחנות הזמינות מסומנות בנקודות צהובות ואדומות על גבי המפה.

העבר את העכבר לנקודה הצבעונית על מנת לראות את שם התחנה.

לאחר מכן, לחץ כדי לראות את תוכן ואת תחזיות מזג האוויר.

כדי לשנות את המפה: לחץ על הכפתורים הירוקים עם הפלוס השחור כדי להתקרב; על הכפתור הירוק עם המקף כדי להתרחק; או בחיצים הירוקים למפות סמוכות.


METAR-TAF: